sensor_id;sensor_type;location;lat;lon;timestamp;P1;durP1;ratioP1;P2;durP2;ratioP2
54745;SDS011;40640;48.130;11.356;2022-12-08T00:01:57;26.35;;;13.02;;
54745;SDS011;40640;48.130;11.356;2022-12-08T00:06:01;31.73;;;13.63;;
54745;SDS011;40640;48.130;11.356;2022-12-08T00:10:23;23.85;;;12.88;;
54745;SDS011;40640;48.130;11.356;2022-12-08T00:14:46;23.30;;;12.45;;
54745;SDS011;40640;48.130;11.356;2022-12-08T00:18:50;27.13;;;12.48;;
54745;SDS011;40640;48.130;11.356;2022-12-08T00:22:52;25.92;;;13.00;;
54745;SDS011;40640;48.130;11.356;2022-12-08T00:26:57;37.13;;;12.55;;
54745;SDS011;40640;48.130;11.356;2022-12-08T00:30:59;24.58;;;12.88;;
54745;SDS011;40640;48.130;11.356;2022-12-08T00:35:09;24.95;;;13.25;;
54745;SDS011;40640;48.130;11.356;2022-12-08T00:39:12;24.95;;;13.68;;
54745;SDS011;40640;48.130;11.356;2022-12-08T00:43:17;28.15;;;13.48;;
54745;SDS011;40640;48.130;11.356;2022-12-08T00:47:20;28.15;;;12.55;;
54745;SDS011;40640;48.130;11.356;2022-12-08T00:51:25;24.93;;;13.27;;
54745;SDS011;40640;48.130;11.356;2022-12-08T00:55:28;25.63;;;13.20;;
54745;SDS011;40640;48.130;11.356;2022-12-08T00:59:32;25.38;;;13.45;;
54745;SDS011;40640;48.130;11.356;2022-12-08T01:03:35;27.98;;;14.23;;
54745;SDS011;40640;48.130;11.356;2022-12-08T01:07:38;24.40;;;12.27;;
54745;SDS011;40640;48.130;11.356;2022-12-08T01:11:41;34.85;;;13.00;;
54745;SDS011;40640;48.130;11.356;2022-12-08T01:15:46;27.55;;;13.82;;
54745;SDS011;40640;48.130;11.356;2022-12-08T01:19:49;23.92;;;13.18;;
54745;SDS011;40640;48.130;11.356;2022-12-08T01:23:51;25.98;;;13.15;;
54745;SDS011;40640;48.130;11.356;2022-12-08T01:27:55;29.77;;;14.13;;
54745;SDS011;40640;48.130;11.356;2022-12-08T01:31:59;27.98;;;13.75;;
54745;SDS011;40640;48.130;11.356;2022-12-08T01:36:02;27.65;;;13.45;;
54745;SDS011;40640;48.130;11.356;2022-12-08T01:40:06;31.02;;;13.20;;
54745;SDS011;40640;48.130;11.356;2022-12-08T01:49:08;24.70;;;13.43;;
54745;SDS011;40640;48.130;11.356;2022-12-08T01:53:16;26.77;;;13.32;;
54745;SDS011;40640;48.130;11.356;2022-12-08T01:57:24;27.10;;;13.65;;
54745;SDS011;40640;48.130;11.356;2022-12-08T02:01:30;24.52;;;13.35;;
54745;SDS011;40640;48.130;11.356;2022-12-08T02:05:35;30.17;;;13.10;;
54745;SDS011;40640;48.130;11.356;2022-12-08T02:09:40;24.42;;;12.60;;
54745;SDS011;40640;48.130;11.356;2022-12-08T02:13:43;29.27;;;13.95;;
54745;SDS011;40640;48.130;11.356;2022-12-08T02:17:50;28.33;;;12.82;;
54745;SDS011;40640;48.130;11.356;2022-12-08T02:22:06;27.45;;;12.95;;
54745;SDS011;40640;48.130;11.356;2022-12-08T02:26:34;26.13;;;13.02;;
54745;SDS011;40640;48.130;11.356;2022-12-08T02:30:56;33.33;;;13.55;;
54745;SDS011;40640;48.130;11.356;2022-12-08T02:35:08;24.98;;;12.40;;
54745;SDS011;40640;48.130;11.356;2022-12-08T02:39:19;24.88;;;12.50;;
54745;SDS011;40640;48.130;11.356;2022-12-08T02:43:28;23.13;;;12.57;;
54745;SDS011;40640;48.130;11.356;2022-12-08T02:47:35;26.10;;;12.75;;
54745;SDS011;40640;48.130;11.356;2022-12-08T02:51:41;23.80;;;13.18;;
54745;SDS011;40640;48.130;11.356;2022-12-08T02:55:45;30.63;;;15.45;;
54745;SDS011;40640;48.130;11.356;2022-12-08T03:00:03;26.58;;;13.65;;
54745;SDS011;40640;48.130;11.356;2022-12-08T03:04:09;26.75;;;13.15;;
54745;SDS011;40640;48.130;11.356;2022-12-08T03:08:21;25.92;;;13.63;;
54745;SDS011;40640;48.130;11.356;2022-12-08T03:12:30;31.65;;;13.63;;
54745;SDS011;40640;48.130;11.356;2022-12-08T03:16:37;27.83;;;13.63;;
54745;SDS011;40640;48.130;11.356;2022-12-08T03:24:48;29.88;;;13.07;;
54745;SDS011;40640;48.130;11.356;2022-12-08T03:28:53;28.35;;;13.50;;
54745;SDS011;40640;48.130;11.356;2022-12-08T03:32:57;26.17;;;13.05;;
54745;SDS011;40640;48.130;11.356;2022-12-08T03:37:05;26.45;;;14.02;;
54745;SDS011;40640;48.130;11.356;2022-12-08T03:41:09;27.17;;;14.23;;
54745;SDS011;40640;48.130;11.356;2022-12-08T03:45:22;29.63;;;14.63;;
54745;SDS011;40640;48.130;11.356;2022-12-08T03:49:24;30.95;;;13.10;;
54745;SDS011;40640;48.130;11.356;2022-12-08T03:53:27;25.10;;;13.52;;
54745;SDS011;40640;48.130;11.356;2022-12-08T03:57:31;33.03;;;14.32;;
54745;SDS011;40640;48.130;11.356;2022-12-08T04:01:34;31.33;;;14.02;;
54745;SDS011;40640;48.130;11.356;2022-12-08T04:05:37;36.05;;;14.55;;
54745;SDS011;40640;48.130;11.356;2022-12-08T04:09:39;28.65;;;13.52;;
54745;SDS011;40640;48.130;11.356;2022-12-08T04:13:44;26.13;;;12.88;;
54745;SDS011;40640;48.130;11.356;2022-12-08T04:17:47;28.90;;;13.38;;
54745;SDS011;40640;48.130;11.356;2022-12-08T04:21:49;28.77;;;14.52;;
54745;SDS011;40640;48.130;11.356;2022-12-08T04:26:01;25.30;;;13.27;;
54745;SDS011;40640;48.130;11.356;2022-12-08T04:30:07;31.90;;;14.13;;
54745;SDS011;40640;48.130;11.356;2022-12-08T04:34:10;29.15;;;13.35;;
54745;SDS011;40640;48.130;11.356;2022-12-08T04:38:13;33.45;;;14.50;;
54745;SDS011;40640;48.130;11.356;2022-12-08T04:42:16;40.08;;;14.43;;
54745;SDS011;40640;48.130;11.356;2022-12-08T04:46:20;24.65;;;13.00;;
54745;SDS011;40640;48.130;11.356;2022-12-08T04:50:23;34.45;;;14.52;;
54745;SDS011;40640;48.130;11.356;2022-12-08T04:54:25;31.55;;;14.77;;
54745;SDS011;40640;48.130;11.356;2022-12-08T04:58:28;29.25;;;14.05;;
54745;SDS011;40640;48.130;11.356;2022-12-08T05:02:32;24.75;;;13.02;;
54745;SDS011;40640;48.130;11.356;2022-12-08T05:06:35;29.73;;;14.55;;
54745;SDS011;40640;48.130;11.356;2022-12-08T05:10:38;28.10;;;14.68;;
54745;SDS011;40640;48.130;11.356;2022-12-08T05:14:41;30.10;;;15.32;;
54745;SDS011;40640;48.130;11.356;2022-12-08T05:18:45;29.30;;;14.35;;
54745;SDS011;40640;48.130;11.356;2022-12-08T05:22:48;30.77;;;14.65;;
54745;SDS011;40640;48.130;11.356;2022-12-08T05:26:50;32.67;;;16.40;;
54745;SDS011;40640;48.130;11.356;2022-12-08T05:30:53;26.92;;;14.65;;
54745;SDS011;40640;48.130;11.356;2022-12-08T05:34:57;29.08;;;14.98;;
54745;SDS011;40640;48.130;11.356;2022-12-08T05:39:00;32.20;;;15.45;;
54745;SDS011;40640;48.130;11.356;2022-12-08T05:43:03;28.10;;;14.07;;
54745;SDS011;40640;48.130;11.356;2022-12-08T05:47:05;28.85;;;14.68;;
54745;SDS011;40640;48.130;11.356;2022-12-08T05:51:16;30.20;;;14.60;;
54745;SDS011;40640;48.130;11.356;2022-12-08T05:55:21;27.05;;;14.43;;
54745;SDS011;40640;48.130;11.356;2022-12-08T05:59:23;30.70;;;16.10;;
54745;SDS011;40640;48.130;11.356;2022-12-08T06:03:26;32.38;;;16.10;;
54745;SDS011;40640;48.130;11.356;2022-12-08T06:07:30;34.13;;;16.25;;
54745;SDS011;40640;48.130;11.356;2022-12-08T06:11:33;27.75;;;14.10;;
54745;SDS011;40640;48.130;11.356;2022-12-08T06:15:37;31.30;;;15.35;;
54745;SDS011;40640;48.130;11.356;2022-12-08T06:19:40;38.40;;;16.55;;
54745;SDS011;40640;48.130;11.356;2022-12-08T06:23:46;31.02;;;15.13;;
54745;SDS011;40640;48.130;11.356;2022-12-08T06:27:49;28.75;;;15.07;;
54745;SDS011;40640;48.130;11.356;2022-12-08T06:31:52;32.85;;;16.00;;
54745;SDS011;40640;48.130;11.356;2022-12-08T06:35:55;36.42;;;17.65;;
54745;SDS011;40640;48.130;11.356;2022-12-08T06:40:01;34.45;;;15.65;;
54745;SDS011;40640;48.130;11.356;2022-12-08T06:44:04;39.00;;;16.73;;
54745;SDS011;40640;48.130;11.356;2022-12-08T06:48:07;49.28;;;22.25;;
54745;SDS011;40640;48.130;11.356;2022-12-08T06:52:10;45.72;;;22.67;;
54745;SDS011;40640;48.130;11.356;2022-12-08T06:56:14;40.53;;;19.85;;
54745;SDS011;40640;48.130;11.356;2022-12-08T07:00:20;38.38;;;18.75;;
54745;SDS011;40640;48.130;11.356;2022-12-08T07:04:23;40.03;;;18.50;;
54745;SDS011;40640;48.130;11.356;2022-12-08T07:08:26;35.30;;;17.23;;
54745;SDS011;40640;48.130;11.356;2022-12-08T07:12:30;29.88;;;14.50;;
54745;SDS011;40640;48.130;11.356;2022-12-08T07:16:33;32.83;;;13.10;;
54745;SDS011;40640;48.130;11.356;2022-12-08T07:20:36;27.88;;;13.93;;
54745;SDS011;40640;48.130;11.356;2022-12-08T07:24:39;37.13;;;16.08;;
54745;SDS011;40640;48.130;11.356;2022-12-08T07:28:43;34.95;;;14.80;;
54745;SDS011;40640;48.130;11.356;2022-12-08T07:32:46;38.78;;;14.57;;
54745;SDS011;40640;48.130;11.356;2022-12-08T07:36:48;32.55;;;15.25;;
54745;SDS011;40640;48.130;11.356;2022-12-08T07:40:51;31.08;;;15.20;;
54745;SDS011;40640;48.130;11.356;2022-12-08T07:44:56;33.05;;;15.27;;
54745;SDS011;40640;48.130;11.356;2022-12-08T07:48:59;29.02;;;14.20;;
54745;SDS011;40640;48.130;11.356;2022-12-08T07:53:01;29.55;;;14.55;;
54745;SDS011;40640;48.130;11.356;2022-12-08T07:57:04;31.00;;;15.45;;
54745;SDS011;40640;48.130;11.356;2022-12-08T08:01:18;30.85;;;15.20;;
54745;SDS011;40640;48.130;11.356;2022-12-08T08:05:22;28.33;;;14.77;;
54745;SDS011;40640;48.130;11.356;2022-12-08T08:09:25;34.05;;;14.90;;
54745;SDS011;40640;48.130;11.356;2022-12-08T08:13:28;27.48;;;15.68;;
54745;SDS011;40640;48.130;11.356;2022-12-08T08:17:32;34.17;;;15.23;;
54745;SDS011;40640;48.130;11.356;2022-12-08T08:21:35;28.92;;;15.07;;
54745;SDS011;40640;48.130;11.356;2022-12-08T08:25:46;26.25;;;14.70;;
54745;SDS011;40640;48.130;11.356;2022-12-08T08:29:49;31.02;;;14.95;;
54745;SDS011;40640;48.130;11.356;2022-12-08T08:33:53;26.25;;;14.73;;
54745;SDS011;40640;48.130;11.356;2022-12-08T08:37:57;26.23;;;14.63;;
54745;SDS011;40640;48.130;11.356;2022-12-08T08:42:00;32.17;;;14.75;;
54745;SDS011;40640;48.130;11.356;2022-12-08T08:46:04;25.10;;;13.70;;
54745;SDS011;40640;48.130;11.356;2022-12-08T08:50:10;25.70;;;14.27;;
54745;SDS011;40640;48.130;11.356;2022-12-08T08:54:13;29.67;;;15.38;;
54745;SDS011;40640;48.130;11.356;2022-12-08T08:58:16;24.73;;;14.65;;
54745;SDS011;40640;48.130;11.356;2022-12-08T09:02:19;24.55;;;14.55;;
54745;SDS011;40640;48.130;11.356;2022-12-08T09:06:24;27.02;;;15.15;;
54745;SDS011;40640;48.130;11.356;2022-12-08T09:10:28;29.15;;;14.93;;
54745;SDS011;40640;48.130;11.356;2022-12-08T09:14:31;26.92;;;15.70;;
54745;SDS011;40640;48.130;11.356;2022-12-08T09:18:34;25.13;;;15.07;;
54745;SDS011;40640;48.130;11.356;2022-12-08T09:22:38;26.83;;;14.63;;
54745;SDS011;40640;48.130;11.356;2022-12-08T09:26:41;30.60;;;15.35;;
54745;SDS011;40640;48.130;11.356;2022-12-08T09:30:44;28.17;;;15.07;;
54745;SDS011;40640;48.130;11.356;2022-12-08T09:34:47;27.50;;;15.20;;
54745;SDS011;40640;48.130;11.356;2022-12-08T09:38:54;28.23;;;15.45;;
54745;SDS011;40640;48.130;11.356;2022-12-08T09:42:57;28.80;;;15.00;;
54745;SDS011;40640;48.130;11.356;2022-12-08T09:47:11;28.17;;;15.65;;
54745;SDS011;40640;48.130;11.356;2022-12-08T09:51:17;27.98;;;15.95;;
54745;SDS011;40640;48.130;11.356;2022-12-08T09:55:23;33.92;;;15.95;;
54745;SDS011;40640;48.130;11.356;2022-12-08T09:59:31;30.10;;;16.88;;
54745;SDS011;40640;48.130;11.356;2022-12-08T10:03:35;30.80;;;17.17;;
54745;SDS011;40640;48.130;11.356;2022-12-08T10:07:40;32.25;;;18.10;;
54745;SDS011;40640;48.130;11.356;2022-12-08T10:11:50;36.83;;;17.63;;
54745;SDS011;40640;48.130;11.356;2022-12-08T10:16:02;33.80;;;17.00;;
54745;SDS011;40640;48.130;11.356;2022-12-08T10:20:23;33.75;;;16.08;;
54745;SDS011;40640;48.130;11.356;2022-12-08T10:24:33;31.60;;;16.65;;
54745;SDS011;40640;48.130;11.356;2022-12-08T10:28:39;27.48;;;16.08;;
54745;SDS011;40640;48.130;11.356;2022-12-08T10:32:47;31.02;;;16.55;;
54745;SDS011;40640;48.130;11.356;2022-12-08T10:36:53;27.42;;;16.02;;
54745;SDS011;40640;48.130;11.356;2022-12-08T10:40:58;30.33;;;16.50;;
54745;SDS011;40640;48.130;11.356;2022-12-08T10:45:19;28.35;;;16.30;;
54745;SDS011;40640;48.130;11.356;2022-12-08T10:49:26;30.65;;;16.13;;
54745;SDS011;40640;48.130;11.356;2022-12-08T10:53:32;28.58;;;16.52;;
54745;SDS011;40640;48.130;11.356;2022-12-08T10:57:46;27.48;;;15.60;;
54745;SDS011;40640;48.130;11.356;2022-12-08T11:01:52;30.55;;;15.77;;
54745;SDS011;40640;48.130;11.356;2022-12-08T11:10:13;29.30;;;15.85;;
54745;SDS011;40640;48.130;11.356;2022-12-08T11:14:21;29.33;;;16.80;;
54745;SDS011;40640;48.130;11.356;2022-12-08T11:18:29;31.25;;;17.05;;
54745;SDS011;40640;48.130;11.356;2022-12-08T11:22:41;26.02;;;15.85;;
54745;SDS011;40640;48.130;11.356;2022-12-08T11:26:45;27.63;;;15.68;;
54745;SDS011;40640;48.130;11.356;2022-12-08T11:30:55;27.27;;;15.90;;
54745;SDS011;40640;48.130;11.356;2022-12-08T11:35:04;31.63;;;16.65;;
54745;SDS011;40640;48.130;11.356;2022-12-08T11:39:08;27.92;;;16.08;;
54745;SDS011;40640;48.130;11.356;2022-12-08T11:43:14;27.60;;;15.57;;
54745;SDS011;40640;48.130;11.356;2022-12-08T11:47:21;25.75;;;15.15;;
54745;SDS011;40640;48.130;11.356;2022-12-08T11:51:29;23.58;;;14.40;;
54745;SDS011;40640;48.130;11.356;2022-12-08T11:55:37;22.80;;;14.75;;
54745;SDS011;40640;48.130;11.356;2022-12-08T11:59:49;23.77;;;14.93;;
54745;SDS011;40640;48.130;11.356;2022-12-08T12:03:54;26.98;;;15.43;;
54745;SDS011;40640;48.130;11.356;2022-12-08T12:08:08;24.83;;;15.27;;
54745;SDS011;40640;48.130;11.356;2022-12-08T12:12:28;25.33;;;15.40;;
54745;SDS011;40640;48.130;11.356;2022-12-08T12:16:49;26.15;;;14.50;;
54745;SDS011;40640;48.130;11.356;2022-12-08T12:21:04;21.33;;;13.57;;
54745;SDS011;40640;48.130;11.356;2022-12-08T12:25:16;25.45;;;14.88;;
54745;SDS011;40640;48.130;11.356;2022-12-08T12:29:21;24.10;;;13.60;;
54745;SDS011;40640;48.130;11.356;2022-12-08T12:33:26;22.88;;;13.55;;
54745;SDS011;40640;48.130;11.356;2022-12-08T12:37:34;31.10;;;14.52;;
54745;SDS011;40640;48.130;11.356;2022-12-08T12:41:43;23.98;;;13.45;;
54745;SDS011;40640;48.130;11.356;2022-12-08T12:45:49;22.33;;;12.98;;
54745;SDS011;40640;48.130;11.356;2022-12-08T12:54:19;21.65;;;12.90;;
54745;SDS011;40640;48.130;11.356;2022-12-08T12:58:35;27.02;;;12.88;;
54745;SDS011;40640;48.130;11.356;2022-12-08T13:02:39;28.55;;;12.30;;
54745;SDS011;40640;48.130;11.356;2022-12-08T13:06:49;22.35;;;12.25;;
54745;SDS011;40640;48.130;11.356;2022-12-08T13:10:56;22.05;;;14.10;;
54745;SDS011;40640;48.130;11.356;2022-12-08T13:15:04;19.35;;;11.95;;
54745;SDS011;40640;48.130;11.356;2022-12-08T13:27:50;20.30;;;12.32;;
54745;SDS011;40640;48.130;11.356;2022-12-08T13:31:56;21.20;;;11.85;;
54745;SDS011;40640;48.130;11.356;2022-12-08T13:36:13;17.52;;;11.57;;
54745;SDS011;40640;48.130;11.356;2022-12-08T13:40:23;17.33;;;11.15;;
54745;SDS011;40640;48.130;11.356;2022-12-08T13:44:28;14.63;;;9.85;;
54745;SDS011;40640;48.130;11.356;2022-12-08T13:48:58;16.40;;;10.88;;
54745;SDS011;40640;48.130;11.356;2022-12-08T13:53:23;18.00;;;11.00;;
54745;SDS011;40640;48.130;11.356;2022-12-08T13:57:49;22.52;;;11.75;;
54745;SDS011;40640;48.130;11.356;2022-12-08T14:01:52;21.02;;;11.30;;
54745;SDS011;40640;48.130;11.356;2022-12-08T14:05:58;20.60;;;12.13;;
54745;SDS011;40640;48.130;11.356;2022-12-08T14:10:14;21.30;;;12.80;;
54745;SDS011;40640;48.130;11.356;2022-12-08T14:14:20;23.48;;;12.05;;
54745;SDS011;40640;48.130;11.356;2022-12-08T14:18:45;22.77;;;11.68;;
54745;SDS011;40640;48.130;11.356;2022-12-08T14:22:51;25.42;;;12.52;;
54745;SDS011;40640;48.130;11.356;2022-12-08T14:26:55;32.15;;;14.18;;
54745;SDS011;40640;48.130;11.356;2022-12-08T14:31:01;26.80;;;14.73;;
54745;SDS011;40640;48.130;11.356;2022-12-08T14:35:13;27.10;;;15.27;;
54745;SDS011;40640;48.130;11.356;2022-12-08T14:39:23;25.27;;;14.43;;
54745;SDS011;40640;48.130;11.356;2022-12-08T14:43:28;29.42;;;15.10;;
54745;SDS011;40640;48.130;11.356;2022-12-08T14:47:32;30.40;;;16.05;;
54745;SDS011;40640;48.130;11.356;2022-12-08T14:51:35;31.40;;;17.77;;
54745;SDS011;40640;48.130;11.356;2022-12-08T14:55:39;35.88;;;16.67;;
54745;SDS011;40640;48.130;11.356;2022-12-08T14:59:44;34.42;;;18.17;;
54745;SDS011;40640;48.130;11.356;2022-12-08T15:03:48;34.35;;;18.50;;
54745;SDS011;40640;48.130;11.356;2022-12-08T15:07:52;35.97;;;17.38;;
54745;SDS011;40640;48.130;11.356;2022-12-08T15:12:02;31.45;;;17.02;;
54745;SDS011;40640;48.130;11.356;2022-12-08T15:16:20;33.45;;;18.25;;
54745;SDS011;40640;48.130;11.356;2022-12-08T15:20:27;29.60;;;15.80;;
54745;SDS011;40640;48.130;11.356;2022-12-08T15:24:36;31.05;;;17.23;;
54745;SDS011;40640;48.130;11.356;2022-12-08T15:28:40;33.78;;;17.02;;
54745;SDS011;40640;48.130;11.356;2022-12-08T15:32:43;35.17;;;18.05;;
54745;SDS011;40640;48.130;11.356;2022-12-08T15:36:46;34.17;;;17.33;;
54745;SDS011;40640;48.130;11.356;2022-12-08T15:40:50;36.03;;;18.23;;
54745;SDS011;40640;48.130;11.356;2022-12-08T15:44:55;34.90;;;17.52;;
54745;SDS011;40640;48.130;11.356;2022-12-08T15:48:57;33.72;;;17.02;;
54745;SDS011;40640;48.130;11.356;2022-12-08T15:53:00;34.67;;;18.05;;
54745;SDS011;40640;48.130;11.356;2022-12-08T15:57:03;40.17;;;18.20;;
54745;SDS011;40640;48.130;11.356;2022-12-08T16:01:27;41.97;;;18.95;;
54745;SDS011;40640;48.130;11.356;2022-12-08T16:05:30;36.10;;;17.35;;
54745;SDS011;40640;48.130;11.356;2022-12-08T16:09:54;29.35;;;16.35;;
54745;SDS011;40640;48.130;11.356;2022-12-08T16:13:57;38.67;;;18.60;;
54745;SDS011;40640;48.130;11.356;2022-12-08T16:18:22;34.78;;;17.50;;
54745;SDS011;40640;48.130;11.356;2022-12-08T16:22:29;37.80;;;18.98;;
54745;SDS011;40640;48.130;11.356;2022-12-08T16:26:53;38.97;;;18.58;;
54745;SDS011;40640;48.130;11.356;2022-12-08T16:31:16;35.88;;;17.15;;
54745;SDS011;40640;48.130;11.356;2022-12-08T16:35:24;38.65;;;19.05;;
54745;SDS011;40640;48.130;11.356;2022-12-08T16:39:27;40.70;;;18.95;;
54745;SDS011;40640;48.130;11.356;2022-12-08T16:43:30;45.03;;;21.02;;
54745;SDS011;40640;48.130;11.356;2022-12-08T16:47:33;41.75;;;18.92;;
54745;SDS011;40640;48.130;11.356;2022-12-08T16:51:37;37.38;;;19.38;;
54745;SDS011;40640;48.130;11.356;2022-12-08T16:55:44;39.10;;;20.35;;
54745;SDS011;40640;48.130;11.356;2022-12-08T16:59:48;42.03;;;20.02;;
54745;SDS011;40640;48.130;11.356;2022-12-08T17:03:50;36.53;;;19.58;;
54745;SDS011;40640;48.130;11.356;2022-12-08T17:08:14;44.33;;;22.05;;
54745;SDS011;40640;48.130;11.356;2022-12-08T17:12:17;46.72;;;23.63;;
54745;SDS011;40640;48.130;11.356;2022-12-08T17:16:20;51.40;;;25.50;;
54745;SDS011;40640;48.130;11.356;2022-12-08T17:20:24;51.20;;;26.90;;
54745;SDS011;40640;48.130;11.356;2022-12-08T17:24:29;46.88;;;23.20;;
54745;SDS011;40640;48.130;11.356;2022-12-08T17:28:32;45.92;;;22.38;;
54745;SDS011;40640;48.130;11.356;2022-12-08T17:32:55;48.38;;;22.33;;
54745;SDS011;40640;48.130;11.356;2022-12-08T17:36:58;48.13;;;22.70;;
54745;SDS011;40640;48.130;11.356;2022-12-08T17:41:03;45.95;;;21.85;;
54745;SDS011;40640;48.130;11.356;2022-12-08T17:45:07;48.00;;;23.30;;
54745;SDS011;40640;48.130;11.356;2022-12-08T17:49:11;54.60;;;26.17;;
54745;SDS011;40640;48.130;11.356;2022-12-08T17:53:18;53.30;;;26.42;;
54745;SDS011;40640;48.130;11.356;2022-12-08T17:57:22;57.15;;;25.80;;
54745;SDS011;40640;48.130;11.356;2022-12-08T18:01:25;52.63;;;24.48;;
54745;SDS011;40640;48.130;11.356;2022-12-08T18:05:29;59.13;;;24.35;;
54745;SDS011;40640;48.130;11.356;2022-12-08T18:09:32;48.15;;;21.98;;
54745;SDS011;40640;48.130;11.356;2022-12-08T18:13:36;41.05;;;21.08;;
54745;SDS011;40640;48.130;11.356;2022-12-08T18:17:39;40.78;;;20.17;;
54745;SDS011;40640;48.130;11.356;2022-12-08T18:21:42;38.47;;;20.38;;
54745;SDS011;40640;48.130;11.356;2022-12-08T18:25:45;48.10;;;21.98;;
54745;SDS011;40640;48.130;11.356;2022-12-08T18:29:49;44.47;;;22.58;;
54745;SDS011;40640;48.130;11.356;2022-12-08T18:33:52;50.08;;;23.45;;
54745;SDS011;40640;48.130;11.356;2022-12-08T18:37:55;48.33;;;24.33;;
54745;SDS011;40640;48.130;11.356;2022-12-08T18:41:58;46.78;;;23.52;;
54745;SDS011;40640;48.130;11.356;2022-12-08T18:46:04;61.55;;;22.92;;
54745;SDS011;40640;48.130;11.356;2022-12-08T18:50:09;49.50;;;23.70;;
54745;SDS011;40640;48.130;11.356;2022-12-08T18:54:13;49.80;;;23.50;;
54745;SDS011;40640;48.130;11.356;2022-12-08T18:58:15;51.22;;;23.33;;
54745;SDS011;40640;48.130;11.356;2022-12-08T19:02:20;50.92;;;23.63;;
54745;SDS011;40640;48.130;11.356;2022-12-08T19:06:23;49.85;;;21.58;;
54745;SDS011;40640;48.130;11.356;2022-12-08T19:10:26;59.10;;;23.33;;
54745;SDS011;40640;48.130;11.356;2022-12-08T19:14:29;53.33;;;22.38;;
54745;SDS011;40640;48.130;11.356;2022-12-08T19:18:35;60.17;;;25.95;;
54745;SDS011;40640;48.130;11.356;2022-12-08T19:22:39;69.05;;;27.25;;
54745;SDS011;40640;48.130;11.356;2022-12-08T19:26:42;79.68;;;31.00;;
54745;SDS011;40640;48.130;11.356;2022-12-08T19:30:45;75.32;;;28.65;;
54745;SDS011;40640;48.130;11.356;2022-12-08T19:34:49;72.97;;;25.02;;
54745;SDS011;40640;48.130;11.356;2022-12-08T19:38:52;61.22;;;24.45;;
54745;SDS011;40640;48.130;11.356;2022-12-08T19:43:13;56.55;;;22.15;;
54745;SDS011;40640;48.130;11.356;2022-12-08T19:47:46;54.80;;;21.27;;
54745;SDS011;40640;48.130;11.356;2022-12-08T19:51:51;51.40;;;21.45;;
54745;SDS011;40640;48.130;11.356;2022-12-08T19:55:54;50.92;;;21.75;;
54745;SDS011;40640;48.130;11.356;2022-12-08T19:59:56;49.95;;;23.00;;
54745;SDS011;40640;48.130;11.356;2022-12-08T20:03:59;42.47;;;20.92;;
54745;SDS011;40640;48.130;11.356;2022-12-08T20:08:04;55.70;;;24.80;;
54745;SDS011;40640;48.130;11.356;2022-12-08T20:12:07;51.40;;;24.73;;
54745;SDS011;40640;48.130;11.356;2022-12-08T20:16:10;55.50;;;23.77;;
54745;SDS011;40640;48.130;11.356;2022-12-08T20:20:14;47.85;;;22.15;;
54745;SDS011;40640;48.130;11.356;2022-12-08T20:24:18;54.30;;;24.13;;
54745;SDS011;40640;48.130;11.356;2022-12-08T20:28:21;46.63;;;22.33;;
54745;SDS011;40640;48.130;11.356;2022-12-08T20:32:24;55.35;;;22.58;;
54745;SDS011;40640;48.130;11.356;2022-12-08T20:36:27;45.70;;;20.38;;
54745;SDS011;40640;48.130;11.356;2022-12-08T20:40:31;47.03;;;21.05;;
54745;SDS011;40640;48.130;11.356;2022-12-08T20:44:34;44.47;;;19.70;;
54745;SDS011;40640;48.130;11.356;2022-12-08T20:48:43;43.85;;;20.13;;
54745;SDS011;40640;48.130;11.356;2022-12-08T20:52:46;44.60;;;20.38;;
54745;SDS011;40640;48.130;11.356;2022-12-08T20:56:50;55.38;;;22.73;;
54745;SDS011;40640;48.130;11.356;2022-12-08T21:00:53;49.78;;;21.98;;
54745;SDS011;40640;48.130;11.356;2022-12-08T21:04:56;45.47;;;21.23;;
54745;SDS011;40640;48.130;11.356;2022-12-08T21:08:59;46.92;;;22.45;;
54745;SDS011;40640;48.130;11.356;2022-12-08T21:13:03;46.22;;;21.83;;
54745;SDS011;40640;48.130;11.356;2022-12-08T21:17:08;55.22;;;22.15;;
54745;SDS011;40640;48.130;11.356;2022-12-08T21:21:12;46.80;;;21.05;;
54745;SDS011;40640;48.130;11.356;2022-12-08T21:25:17;43.08;;;20.45;;
54745;SDS011;40640;48.130;11.356;2022-12-08T21:29:22;46.75;;;20.20;;
54745;SDS011;40640;48.130;11.356;2022-12-08T21:33:24;45.92;;;20.55;;
54745;SDS011;40640;48.130;11.356;2022-12-08T21:37:27;48.63;;;19.98;;
54745;SDS011;40640;48.130;11.356;2022-12-08T21:41:30;51.30;;;19.95;;
54745;SDS011;40640;48.130;11.356;2022-12-08T21:45:52;44.03;;;20.17;;
54745;SDS011;40640;48.130;11.356;2022-12-08T21:49:55;42.80;;;18.52;;
54745;SDS011;40640;48.130;11.356;2022-12-08T21:53:58;41.55;;;19.10;;
54745;SDS011;40640;48.130;11.356;2022-12-08T21:58:01;48.38;;;18.55;;
54745;SDS011;40640;48.130;11.356;2022-12-08T22:02:05;49.10;;;19.80;;
54745;SDS011;40640;48.130;11.356;2022-12-08T22:06:11;62.63;;;24.70;;
54745;SDS011;40640;48.130;11.356;2022-12-08T22:10:15;51.53;;;21.25;;
54745;SDS011;40640;48.130;11.356;2022-12-08T22:14:18;53.95;;;20.00;;
54745;SDS011;40640;48.130;11.356;2022-12-08T22:18:23;44.33;;;19.55;;
54745;SDS011;40640;48.130;11.356;2022-12-08T22:22:26;42.15;;;18.75;;
54745;SDS011;40640;48.130;11.356;2022-12-08T22:26:29;43.15;;;18.58;;
54745;SDS011;40640;48.130;11.356;2022-12-08T22:30:32;42.08;;;18.35;;
54745;SDS011;40640;48.130;11.356;2022-12-08T22:34:41;44.60;;;20.75;;
54745;SDS011;40640;48.130;11.356;2022-12-08T22:38:44;46.63;;;20.13;;
54745;SDS011;40640;48.130;11.356;2022-12-08T22:42:47;43.75;;;18.73;;
54745;SDS011;40640;48.130;11.356;2022-12-08T22:46:49;38.83;;;18.48;;
54745;SDS011;40640;48.130;11.356;2022-12-08T22:50:57;42.40;;;18.02;;
54745;SDS011;40640;48.130;11.356;2022-12-08T22:55:00;44.88;;;19.02;;
54745;SDS011;40640;48.130;11.356;2022-12-08T22:59:03;44.70;;;18.05;;
54745;SDS011;40640;48.130;11.356;2022-12-08T23:03:06;51.08;;;20.60;;
54745;SDS011;40640;48.130;11.356;2022-12-08T23:07:11;41.58;;;18.75;;
54745;SDS011;40640;48.130;11.356;2022-12-08T23:11:13;43.83;;;19.33;;
54745;SDS011;40640;48.130;11.356;2022-12-08T23:15:16;39.00;;;17.08;;
54745;SDS011;40640;48.130;11.356;2022-12-08T23:19:19;38.80;;;17.50;;
54745;SDS011;40640;48.130;11.356;2022-12-08T23:23:23;41.55;;;18.38;;
54745;SDS011;40640;48.130;11.356;2022-12-08T23:27:26;42.15;;;17.98;;
54745;SDS011;40640;48.130;11.356;2022-12-08T23:31:29;34.55;;;16.70;;
54745;SDS011;40640;48.130;11.356;2022-12-08T23:35:32;39.00;;;18.13;;
54745;SDS011;40640;48.130;11.356;2022-12-08T23:39:36;39.00;;;18.33;;
54745;SDS011;40640;48.130;11.356;2022-12-08T23:43:41;45.33;;;20.95;;
54745;SDS011;40640;48.130;11.356;2022-12-08T23:47:45;62.72;;;23.98;;
54745;SDS011;40640;48.130;11.356;2022-12-08T23:51:49;58.33;;;23.55;;
54745;SDS011;40640;48.130;11.356;2022-12-08T23:55:57;61.60;;;23.23;;
